sensor_id;sensor_type;location;lat;lon;timestamp;P1;durP1;ratioP1;P2;durP2;ratioP2
2858;SDS011;1437;53.250;10.406;2023-04-06T00:00:16;9.07;;;6.43;;
2858;SDS011;1437;53.250;10.406;2023-04-06T00:02:44;13.97;;;6.97;;
2858;SDS011;1437;53.250;10.406;2023-04-06T00:05:13;8.20;;;6.90;;
2858;SDS011;1437;53.250;10.406;2023-04-06T00:07:44;8.77;;;5.13;;
2858;SDS011;1437;53.250;10.406;2023-04-06T00:10:19;6.23;;;4.23;;
2858;SDS011;1437;53.250;10.406;2023-04-06T00:12:47;7.47;;;4.50;;
2858;SDS011;1437;53.250;10.406;2023-04-06T00:15:16;6.27;;;4.40;;
2858;SDS011;1437;53.250;10.406;2023-04-06T00:17:46;5.00;;;4.43;;
2858;SDS011;1437;53.250;10.406;2023-04-06T00:20:20;12.43;;;5.33;;
2858;SDS011;1437;53.250;10.406;2023-04-06T00:22:47;7.37;;;4.70;;
2858;SDS011;1437;53.250;10.406;2023-04-06T00:25:18;11.40;;;5.37;;
2858;SDS011;1437;53.250;10.406;2023-04-06T00:27:47;7.27;;;4.80;;
2858;SDS011;1437;53.250;10.406;2023-04-06T00:30:16;7.10;;;4.60;;
2858;SDS011;1437;53.250;10.406;2023-04-06T00:32:43;5.73;;;4.30;;
2858;SDS011;1437;53.250;10.406;2023-04-06T00:35:11;6.93;;;4.13;;
2858;SDS011;1437;53.250;10.406;2023-04-06T00:37:41;9.47;;;6.70;;
2858;SDS011;1437;53.250;10.406;2023-04-06T00:40:13;9.63;;;5.00;;
2858;SDS011;1437;53.250;10.406;2023-04-06T00:42:46;10.60;;;4.90;;
2858;SDS011;1437;53.250;10.406;2023-04-06T00:45:20;7.10;;;4.43;;
2858;SDS011;1437;53.250;10.406;2023-04-06T00:47:50;8.37;;;5.30;;
2858;SDS011;1437;53.250;10.406;2023-04-06T00:50:21;6.80;;;4.70;;
2858;SDS011;1437;53.250;10.406;2023-04-06T00:52:56;6.60;;;4.43;;
2858;SDS011;1437;53.250;10.406;2023-04-06T00:55:24;5.73;;;3.80;;
2858;SDS011;1437;53.250;10.406;2023-04-06T00:57:57;11.00;;;4.93;;
2858;SDS011;1437;53.250;10.406;2023-04-06T01:00:27;7.37;;;4.67;;
2858;SDS011;1437;53.250;10.406;2023-04-06T01:02:56;6.00;;;4.00;;
2858;SDS011;1437;53.250;10.406;2023-04-06T01:05:24;7.00;;;4.10;;
2858;SDS011;1437;53.250;10.406;2023-04-06T01:07:51;6.23;;;3.93;;
2858;SDS011;1437;53.250;10.406;2023-04-06T01:10:28;5.37;;;3.90;;
2858;SDS011;1437;53.250;10.406;2023-04-06T01:12:56;7.23;;;4.13;;
2858;SDS011;1437;53.250;10.406;2023-04-06T01:15:28;7.17;;;3.80;;
2858;SDS011;1437;53.250;10.406;2023-04-06T01:17:58;4.67;;;3.37;;
2858;SDS011;1437;53.250;10.406;2023-04-06T01:20:27;6.67;;;4.00;;
2858;SDS011;1437;53.250;10.406;2023-04-06T01:22:57;6.10;;;3.80;;
2858;SDS011;1437;53.250;10.406;2023-04-06T01:25:26;7.10;;;3.53;;
2858;SDS011;1437;53.250;10.406;2023-04-06T01:27:54;8.33;;;3.80;;
2858;SDS011;1437;53.250;10.406;2023-04-06T01:30:21;5.60;;;3.93;;
2858;SDS011;1437;53.250;10.406;2023-04-06T01:32:49;4.87;;;3.60;;
2858;SDS011;1437;53.250;10.406;2023-04-06T01:35:25;7.40;;;4.50;;
2858;SDS011;1437;53.250;10.406;2023-04-06T01:37:53;5.50;;;3.20;;
2858;SDS011;1437;53.250;10.406;2023-04-06T01:40:22;5.10;;;3.50;;
2858;SDS011;1437;53.250;10.406;2023-04-06T01:42:50;4.83;;;3.37;;
2858;SDS011;1437;53.250;10.406;2023-04-06T01:45:17;5.53;;;3.57;;
2858;SDS011;1437;53.250;10.406;2023-04-06T01:47:45;9.50;;;3.40;;
2858;SDS011;1437;53.250;10.406;2023-04-06T01:50:15;3.90;;;2.97;;
2858;SDS011;1437;53.250;10.406;2023-04-06T01:52:43;5.60;;;3.57;;
2858;SDS011;1437;53.250;10.406;2023-04-06T01:55:10;5.17;;;3.13;;
2858;SDS011;1437;53.250;10.406;2023-04-06T01:57:39;7.37;;;3.80;;
2858;SDS011;1437;53.250;10.406;2023-04-06T02:00:16;8.23;;;4.23;;
2858;SDS011;1437;53.250;10.406;2023-04-06T02:02:43;4.60;;;3.40;;
2858;SDS011;1437;53.250;10.406;2023-04-06T02:05:11;5.40;;;3.47;;
2858;SDS011;1437;53.250;10.406;2023-04-06T02:07:38;5.77;;;3.77;;
2858;SDS011;1437;53.250;10.406;2023-04-06T02:10:10;6.07;;;3.50;;
2858;SDS011;1437;53.250;10.406;2023-04-06T02:12:41;8.83;;;3.67;;
2858;SDS011;1437;53.250;10.406;2023-04-06T02:15:09;5.87;;;3.50;;
2858;SDS011;1437;53.250;10.406;2023-04-06T02:17:39;4.40;;;3.43;;
2858;SDS011;1437;53.250;10.406;2023-04-06T02:20:12;7.07;;;4.10;;
2858;SDS011;1437;53.250;10.406;2023-04-06T02:22:40;4.63;;;2.90;;
2858;SDS011;1437;53.250;10.406;2023-04-06T02:25:07;4.87;;;3.30;;
2858;SDS011;1437;53.250;10.406;2023-04-06T02:27:35;6.50;;;4.13;;
2858;SDS011;1437;53.250;10.406;2023-04-06T02:30:07;5.40;;;3.50;;
2858;SDS011;1437;53.250;10.406;2023-04-06T02:32:43;5.73;;;3.37;;
2858;SDS011;1437;53.250;10.406;2023-04-06T02:35:10;4.43;;;3.70;;
2858;SDS011;1437;53.250;10.406;2023-04-06T02:37:38;9.97;;;4.83;;
2858;SDS011;1437;53.250;10.406;2023-04-06T02:40:06;5.33;;;3.23;;
2858;SDS011;1437;53.250;10.406;2023-04-06T02:42:42;5.67;;;4.07;;
2858;SDS011;1437;53.250;10.406;2023-04-06T02:45:13;5.07;;;3.90;;
2858;SDS011;1437;53.250;10.406;2023-04-06T02:47:41;8.13;;;4.07;;
2858;SDS011;1437;53.250;10.406;2023-04-06T02:50:13;5.73;;;3.73;;
2858;SDS011;1437;53.250;10.406;2023-04-06T02:52:41;7.83;;;4.30;;
2858;SDS011;1437;53.250;10.406;2023-04-06T02:55:09;8.50;;;4.83;;
2858;SDS011;1437;53.250;10.406;2023-04-06T02:57:36;6.87;;;4.10;;
2858;SDS011;1437;53.250;10.406;2023-04-06T03:00:04;5.10;;;3.57;;
2858;SDS011;1437;53.250;10.406;2023-04-06T03:02:33;8.73;;;4.57;;
2858;SDS011;1437;53.250;10.406;2023-04-06T03:05:01;7.10;;;3.27;;
2858;SDS011;1437;53.250;10.406;2023-04-06T03:07:28;6.10;;;4.40;;
2858;SDS011;1437;53.250;10.406;2023-04-06T03:09:56;5.70;;;4.40;;
2858;SDS011;1437;53.250;10.406;2023-04-06T03:12:23;7.97;;;4.13;;
2858;SDS011;1437;53.250;10.406;2023-04-06T03:14:51;6.57;;;3.70;;
2858;SDS011;1437;53.250;10.406;2023-04-06T03:17:19;5.00;;;3.83;;
2858;SDS011;1437;53.250;10.406;2023-04-06T03:19:47;6.33;;;3.53;;
2858;SDS011;1437;53.250;10.406;2023-04-06T03:22:15;4.43;;;3.90;;
2858;SDS011;1437;53.250;10.406;2023-04-06T03:24:42;7.50;;;3.70;;
2858;SDS011;1437;53.250;10.406;2023-04-06T03:27:10;5.63;;;4.10;;
2858;SDS011;1437;53.250;10.406;2023-04-06T03:29:38;12.00;;;4.10;;
2858;SDS011;1437;53.250;10.406;2023-04-06T03:32:05;7.23;;;4.23;;
2858;SDS011;1437;53.250;10.406;2023-04-06T03:34:34;8.23;;;4.53;;
2858;SDS011;1437;53.250;10.406;2023-04-06T03:37:03;5.63;;;4.00;;
2858;SDS011;1437;53.250;10.406;2023-04-06T03:39:31;7.87;;;4.63;;
2858;SDS011;1437;53.250;10.406;2023-04-06T03:42:04;7.30;;;4.37;;
2858;SDS011;1437;53.250;10.406;2023-04-06T03:44:32;6.90;;;4.60;;
2858;SDS011;1437;53.250;10.406;2023-04-06T03:46:59;8.07;;;4.30;;
2858;SDS011;1437;53.250;10.406;2023-04-06T03:49:27;6.33;;;4.80;;
2858;SDS011;1437;53.250;10.406;2023-04-06T03:51:55;7.20;;;4.93;;
2858;SDS011;1437;53.250;10.406;2023-04-06T03:54:24;8.60;;;4.77;;
2858;SDS011;1437;53.250;10.406;2023-04-06T03:56:52;5.80;;;3.57;;
2858;SDS011;1437;53.250;10.406;2023-04-06T03:59:20;8.13;;;4.47;;
2858;SDS011;1437;53.250;10.406;2023-04-06T04:01:48;10.70;;;4.43;;
2858;SDS011;1437;53.250;10.406;2023-04-06T04:04:16;5.37;;;4.20;;
2858;SDS011;1437;53.250;10.406;2023-04-06T04:06:43;7.80;;;4.90;;
2858;SDS011;1437;53.250;10.406;2023-04-06T04:09:12;8.77;;;4.77;;
2858;SDS011;1437;53.250;10.406;2023-04-06T04:11:44;6.07;;;4.00;;
2858;SDS011;1437;53.250;10.406;2023-04-06T04:14:15;8.80;;;4.60;;
2858;SDS011;1437;53.250;10.406;2023-04-06T04:16:42;6.10;;;4.40;;
2858;SDS011;1437;53.250;10.406;2023-04-06T04:19:10;8.13;;;5.00;;
2858;SDS011;1437;53.250;10.406;2023-04-06T04:21:42;5.10;;;4.37;;
2858;SDS011;1437;53.250;10.406;2023-04-06T04:24:10;5.30;;;4.17;;
2858;SDS011;1437;53.250;10.406;2023-04-06T04:29:31;5.97;;;3.93;;
2858;SDS011;1437;53.250;10.406;2023-04-06T04:32:02;7.40;;;3.90;;
2858;SDS011;1437;53.250;10.406;2023-04-06T04:34:30;5.43;;;4.40;;
2858;SDS011;1437;53.250;10.406;2023-04-06T04:36:58;7.97;;;5.50;;
2858;SDS011;1437;53.250;10.406;2023-04-06T04:39:25;6.43;;;4.37;;
2858;SDS011;1437;53.250;10.406;2023-04-06T04:41:53;10.27;;;5.03;;
2858;SDS011;1437;53.250;10.406;2023-04-06T04:44:20;12.00;;;5.10;;
2858;SDS011;1437;53.250;10.406;2023-04-06T04:46:50;6.63;;;5.07;;
2858;SDS011;1437;53.250;10.406;2023-04-06T04:49:17;6.43;;;4.73;;
2858;SDS011;1437;53.250;10.406;2023-04-06T04:51:45;7.33;;;4.93;;
2858;SDS011;1437;53.250;10.406;2023-04-06T04:54:12;7.87;;;5.60;;
2858;SDS011;1437;53.250;10.406;2023-04-06T04:56:39;5.60;;;4.70;;
2858;SDS011;1437;53.250;10.406;2023-04-06T04:59:08;7.70;;;5.43;;
2858;SDS011;1437;53.250;10.406;2023-04-06T05:01:37;7.43;;;5.07;;
2858;SDS011;1437;53.250;10.406;2023-04-06T05:04:09;6.37;;;4.90;;
2858;SDS011;1437;53.250;10.406;2023-04-06T05:06:37;9.07;;;5.70;;
2858;SDS011;1437;53.250;10.406;2023-04-06T05:09:04;8.20;;;5.40;;
2858;SDS011;1437;53.250;10.406;2023-04-06T05:11:33;11.23;;;6.43;;
2858;SDS011;1437;53.250;10.406;2023-04-06T05:14:00;9.83;;;6.40;;
2858;SDS011;1437;53.250;10.406;2023-04-06T05:16:27;8.60;;;6.30;;
2858;SDS011;1437;53.250;10.406;2023-04-06T05:18:55;9.47;;;6.10;;
2858;SDS011;1437;53.250;10.406;2023-04-06T05:21:25;9.67;;;6.03;;
2858;SDS011;1437;53.250;10.406;2023-04-06T05:23:54;7.10;;;6.00;;
2858;SDS011;1437;53.250;10.406;2023-04-06T05:26:23;7.50;;;5.50;;
2858;SDS011;1437;53.250;10.406;2023-04-06T05:28:51;12.60;;;6.50;;
2858;SDS011;1437;53.250;10.406;2023-04-06T05:31:19;8.00;;;5.20;;
2858;SDS011;1437;53.250;10.406;2023-04-06T05:33:48;9.07;;;5.63;;
2858;SDS011;1437;53.250;10.406;2023-04-06T05:36:15;13.50;;;6.20;;
2858;SDS011;1437;53.250;10.406;2023-04-06T05:38:44;12.33;;;5.77;;
2858;SDS011;1437;53.250;10.406;2023-04-06T05:41:13;10.70;;;5.60;;
2858;SDS011;1437;53.250;10.406;2023-04-06T05:43:40;7.93;;;6.03;;
2858;SDS011;1437;53.250;10.406;2023-04-06T05:46:08;8.80;;;5.80;;
2858;SDS011;1437;53.250;10.406;2023-04-06T05:48:35;7.60;;;5.40;;
2858;SDS011;1437;53.250;10.406;2023-04-06T05:51:03;7.07;;;4.80;;
2858;SDS011;1437;53.250;10.406;2023-04-06T05:53:32;8.73;;;5.23;;
2858;SDS011;1437;53.250;10.406;2023-04-06T05:56:02;8.40;;;5.70;;
2858;SDS011;1437;53.250;10.406;2023-04-06T05:58:33;6.57;;;5.40;;
2858;SDS011;1437;53.250;10.406;2023-04-06T06:01:04;7.77;;;6.10;;
2858;SDS011;1437;53.250;10.406;2023-04-06T06:03:31;10.40;;;5.70;;
2858;SDS011;1437;53.250;10.406;2023-04-06T06:05:59;8.27;;;6.10;;
2858;SDS011;1437;53.250;10.406;2023-04-06T06:08:27;7.57;;;5.90;;
2858;SDS011;1437;53.250;10.406;2023-04-06T06:10:54;7.43;;;6.13;;
2858;SDS011;1437;53.250;10.406;2023-04-06T06:13:23;10.80;;;5.83;;
2858;SDS011;1437;53.250;10.406;2023-04-06T06:15:51;7.40;;;4.93;;
2858;SDS011;1437;53.250;10.406;2023-04-06T06:18:19;7.07;;;5.20;;
2858;SDS011;1437;53.250;10.406;2023-04-06T06:20:46;7.37;;;5.43;;
2858;SDS011;1437;53.250;10.406;2023-04-06T06:23:16;7.80;;;4.63;;
2858;SDS011;1437;53.250;10.406;2023-04-06T06:25:43;7.17;;;5.07;;
2858;SDS011;1437;53.250;10.406;2023-04-06T06:28:11;7.10;;;5.73;;
2858;SDS011;1437;53.250;10.406;2023-04-06T06:30:42;6.57;;;4.97;;
2858;SDS011;1437;53.250;10.406;2023-04-06T06:33:10;8.50;;;4.50;;
2858;SDS011;1437;53.250;10.406;2023-04-06T06:35:38;9.33;;;4.23;;
2858;SDS011;1437;53.250;10.406;2023-04-06T06:38:09;6.10;;;4.57;;
2858;SDS011;1437;53.250;10.406;2023-04-06T06:40:40;5.90;;;4.23;;
2858;SDS011;1437;53.250;10.406;2023-04-06T06:43:08;6.80;;;4.70;;
2858;SDS011;1437;53.250;10.406;2023-04-06T06:45:36;7.43;;;4.90;;
2858;SDS011;1437;53.250;10.406;2023-04-06T06:48:08;16.00;;;5.97;;
2858;SDS011;1437;53.250;10.406;2023-04-06T06:50:37;4.80;;;3.70;;
2858;SDS011;1437;53.250;10.406;2023-04-06T06:53:04;7.30;;;3.97;;
2858;SDS011;1437;53.250;10.406;2023-04-06T06:55:35;9.20;;;4.70;;
2858;SDS011;1437;53.250;10.406;2023-04-06T06:58:03;8.40;;;4.10;;
2858;SDS011;1437;53.250;10.406;2023-04-06T07:00:32;17.90;;;5.43;;
2858;SDS011;1437;53.250;10.406;2023-04-06T07:03:02;6.37;;;4.13;;
2858;SDS011;1437;53.250;10.406;2023-04-06T07:05:31;6.90;;;4.27;;
2858;SDS011;1437;53.250;10.406;2023-04-06T07:07:59;7.73;;;3.63;;
2858;SDS011;1437;53.250;10.406;2023-04-06T07:10:27;7.40;;;4.23;;
2858;SDS011;1437;53.250;10.406;2023-04-06T07:12:59;6.17;;;3.57;;
2858;SDS011;1437;53.250;10.406;2023-04-06T07:15:27;7.37;;;3.80;;
2858;SDS011;1437;53.250;10.406;2023-04-06T07:17:59;6.90;;;4.43;;
2858;SDS011;1437;53.250;10.406;2023-04-06T07:20:27;6.77;;;4.07;;
2858;SDS011;1437;53.250;10.406;2023-04-06T07:22:58;6.80;;;3.73;;
2858;SDS011;1437;53.250;10.406;2023-04-06T07:25:29;7.50;;;4.27;;
2858;SDS011;1437;53.250;10.406;2023-04-06T07:27:56;7.13;;;3.90;;
2858;SDS011;1437;53.250;10.406;2023-04-06T07:30:24;6.40;;;3.60;;
2858;SDS011;1437;53.250;10.406;2023-04-06T07:32:53;12.33;;;5.40;;
2858;SDS011;1437;53.250;10.406;2023-04-06T07:35:22;8.40;;;4.87;;
2858;SDS011;1437;53.250;10.406;2023-04-06T07:37:50;6.77;;;4.17;;
2858;SDS011;1437;53.250;10.406;2023-04-06T07:40:23;6.40;;;4.27;;
2858;SDS011;1437;53.250;10.406;2023-04-06T07:42:52;13.70;;;4.70;;
2858;SDS011;1437;53.250;10.406;2023-04-06T07:45:20;8.83;;;3.33;;
2858;SDS011;1437;53.250;10.406;2023-04-06T07:47:54;7.20;;;3.77;;
2858;SDS011;1437;53.250;10.406;2023-04-06T07:50:22;9.97;;;4.33;;
2858;SDS011;1437;53.250;10.406;2023-04-06T07:52:49;6.00;;;3.57;;
2858;SDS011;1437;53.250;10.406;2023-04-06T07:55:18;6.43;;;3.90;;
2858;SDS011;1437;53.250;10.406;2023-04-06T07:57:49;5.57;;;2.97;;
2858;SDS011;1437;53.250;10.406;2023-04-06T08:00:23;11.83;;;4.93;;
2858;SDS011;1437;53.250;10.406;2023-04-06T08:02:52;5.13;;;3.53;;
2858;SDS011;1437;53.250;10.406;2023-04-06T08:05:21;6.87;;;3.83;;
2858;SDS011;1437;53.250;10.406;2023-04-06T08:07:48;5.63;;;3.10;;
2858;SDS011;1437;53.250;10.406;2023-04-06T08:10:16;8.40;;;3.10;;
2858;SDS011;1437;53.250;10.406;2023-04-06T08:12:44;9.00;;;3.70;;
2858;SDS011;1437;53.250;10.406;2023-04-06T08:15:16;7.77;;;2.90;;
2858;SDS011;1437;53.250;10.406;2023-04-06T08:17:46;6.40;;;3.17;;
2858;SDS011;1437;53.250;10.406;2023-04-06T08:20:15;8.73;;;3.47;;
2858;SDS011;1437;53.250;10.406;2023-04-06T08:22:43;5.57;;;3.43;;
2858;SDS011;1437;53.250;10.406;2023-04-06T08:25:17;5.60;;;2.90;;
2858;SDS011;1437;53.250;10.406;2023-04-06T08:27:46;8.20;;;3.50;;
2858;SDS011;1437;53.250;10.406;2023-04-06T08:30:18;9.57;;;3.63;;
2858;SDS011;1437;53.250;10.406;2023-04-06T08:32:47;6.17;;;4.00;;
2858;SDS011;1437;53.250;10.406;2023-04-06T08:35:15;6.17;;;3.40;;
2858;SDS011;1437;53.250;10.406;2023-04-06T08:37:43;5.37;;;2.60;;
2858;SDS011;1437;53.250;10.406;2023-04-06T08:40:16;8.80;;;3.60;;
2858;SDS011;1437;53.250;10.406;2023-04-06T08:42:44;8.20;;;5.27;;
2858;SDS011;1437;53.250;10.406;2023-04-06T08:45:18;5.90;;;3.10;;
2858;SDS011;1437;53.250;10.406;2023-04-06T08:47:48;6.20;;;3.10;;
2858;SDS011;1437;53.250;10.406;2023-04-06T08:50:17;5.57;;;3.20;;
2858;SDS011;1437;53.250;10.406;2023-04-06T08:52:47;4.87;;;2.90;;
2858;SDS011;1437;53.250;10.406;2023-04-06T08:55:15;9.70;;;4.83;;
2858;SDS011;1437;53.250;10.406;2023-04-06T08:57:42;13.50;;;7.33;;
2858;SDS011;1437;53.250;10.406;2023-04-06T09:03:29;6.17;;;3.20;;
2858;SDS011;1437;53.250;10.406;2023-04-06T09:05:59;12.43;;;4.37;;
2858;SDS011;1437;53.250;10.406;2023-04-06T09:08:33;7.53;;;4.10;;
2858;SDS011;1437;53.250;10.406;2023-04-06T09:11:06;6.93;;;6.13;;
2858;SDS011;1437;53.250;10.406;2023-04-06T09:13:44;6.53;;;3.70;;
2858;SDS011;1437;53.250;10.406;2023-04-06T09:16:18;9.07;;;3.30;;
2858;SDS011;1437;53.250;10.406;2023-04-06T09:18:47;6.07;;;3.60;;
2858;SDS011;1437;53.250;10.406;2023-04-06T09:21:18;5.83;;;2.87;;
2858;SDS011;1437;53.250;10.406;2023-04-06T09:23:57;12.53;;;4.10;;
2858;SDS011;1437;53.250;10.406;2023-04-06T09:26:25;6.43;;;3.53;;
2858;SDS011;1437;53.250;10.406;2023-04-06T09:28:53;6.30;;;2.93;;
2858;SDS011;1437;53.250;10.406;2023-04-06T09:31:35;8.40;;;4.13;;
2858;SDS011;1437;53.250;10.406;2023-04-06T09:34:19;8.13;;;3.80;;
2858;SDS011;1437;53.250;10.406;2023-04-06T09:36:53;5.83;;;4.00;;
2858;SDS011;1437;53.250;10.406;2023-04-06T09:39:24;6.00;;;3.93;;
2858;SDS011;1437;53.250;10.406;2023-04-06T09:41:53;6.90;;;4.67;;
2858;SDS011;1437;53.250;10.406;2023-04-06T09:44:21;7.70;;;4.53;;
2858;SDS011;1437;53.250;10.406;2023-04-06T09:46:55;6.63;;;4.50;;
2858;SDS011;1437;53.250;10.406;2023-04-06T09:49:24;7.47;;;3.90;;
2858;SDS011;1437;53.250;10.406;2023-04-06T09:51:55;7.90;;;4.50;;
2858;SDS011;1437;53.250;10.406;2023-04-06T09:54:24;7.83;;;4.43;;
2858;SDS011;1437;53.250;10.406;2023-04-06T09:56:54;6.97;;;4.50;;
2858;SDS011;1437;53.250;10.406;2023-04-06T09:59:26;11.00;;;4.83;;
2858;SDS011;1437;53.250;10.406;2023-04-06T10:01:57;8.37;;;4.20;;
2858;SDS011;1437;53.250;10.406;2023-04-06T10:04:29;10.20;;;4.60;;
2858;SDS011;1437;53.250;10.406;2023-04-06T10:07:01;8.27;;;4.90;;
2858;SDS011;1437;53.250;10.406;2023-04-06T10:09:30;7.43;;;4.73;;
2858;SDS011;1437;53.250;10.406;2023-04-06T10:12:02;10.70;;;5.00;;
2858;SDS011;1437;53.250;10.406;2023-04-06T10:14:33;7.60;;;4.33;;
2858;SDS011;1437;53.250;10.406;2023-04-06T10:17:03;8.13;;;4.73;;
2858;SDS011;1437;53.250;10.406;2023-04-06T10:19:39;11.77;;;5.50;;
2858;SDS011;1437;53.250;10.406;2023-04-06T10:22:08;8.50;;;5.37;;
2858;SDS011;1437;53.250;10.406;2023-04-06T10:24:37;8.40;;;5.17;;
2858;SDS011;1437;53.250;10.406;2023-04-06T10:27:07;9.30;;;5.37;;
2858;SDS011;1437;53.250;10.406;2023-04-06T10:29:42;10.00;;;6.40;;
2858;SDS011;1437;53.250;10.406;2023-04-06T10:32:10;9.83;;;5.53;;
2858;SDS011;1437;53.250;10.406;2023-04-06T10:34:41;7.47;;;4.97;;
2858;SDS011;1437;53.250;10.406;2023-04-06T10:37:15;9.10;;;5.37;;
2858;SDS011;1437;53.250;10.406;2023-04-06T10:39:55;6.60;;;4.57;;
2858;SDS011;1437;53.250;10.406;2023-04-06T10:42:35;6.60;;;4.43;;
2858;SDS011;1437;53.250;10.406;2023-04-06T10:45:07;9.30;;;5.20;;
2858;SDS011;1437;53.250;10.406;2023-04-06T10:48:04;6.77;;;4.53;;
2858;SDS011;1437;53.250;10.406;2023-04-06T10:50:44;11.37;;;5.47;;
2858;SDS011;1437;53.250;10.406;2023-04-06T10:53:21;11.23;;;6.47;;
2858;SDS011;1437;53.250;10.406;2023-04-06T10:55:50;9.53;;;6.10;;
2858;SDS011;1437;53.250;10.406;2023-04-06T10:58:27;10.40;;;6.97;;
2858;SDS011;1437;53.250;10.406;2023-04-06T11:01:06;9.83;;;5.60;;
2858;SDS011;1437;53.250;10.406;2023-04-06T11:03:42;12.67;;;5.80;;
2858;SDS011;1437;53.250;10.406;2023-04-06T11:06:12;8.00;;;5.30;;
2858;SDS011;1437;53.250;10.406;2023-04-06T11:08:45;10.87;;;7.27;;
2858;SDS011;1437;53.250;10.406;2023-04-06T11:11:17;10.77;;;5.90;;
2858;SDS011;1437;53.250;10.406;2023-04-06T11:14:00;8.30;;;5.47;;
2858;SDS011;1437;53.250;10.406;2023-04-06T11:16:39;9.53;;;6.60;;
2858;SDS011;1437;53.250;10.406;2023-04-06T11:19:16;8.10;;;5.93;;
2858;SDS011;1437;53.250;10.406;2023-04-06T11:21:45;9.77;;;5.40;;
2858;SDS011;1437;53.250;10.406;2023-04-06T11:24:14;12.53;;;6.37;;
2858;SDS011;1437;53.250;10.406;2023-04-06T11:26:50;9.23;;;5.83;;
2858;SDS011;1437;53.250;10.406;2023-04-06T11:29:22;9.70;;;5.13;;
2858;SDS011;1437;53.250;10.406;2023-04-06T11:31:51;10.60;;;5.50;;
2858;SDS011;1437;53.250;10.406;2023-04-06T11:34:22;9.10;;;5.80;;
2858;SDS011;1437;53.250;10.406;2023-04-06T11:36:55;11.97;;;5.67;;
2858;SDS011;1437;53.250;10.406;2023-04-06T11:39:28;8.47;;;5.77;;
2858;SDS011;1437;53.250;10.406;2023-04-06T11:41:58;8.97;;;6.07;;
2858;SDS011;1437;53.250;10.406;2023-04-06T11:44:28;13.37;;;5.77;;
2858;SDS011;1437;53.250;10.406;2023-04-06T11:47:00;8.80;;;6.00;;
2858;SDS011;1437;53.250;10.406;2023-04-06T11:49:31;12.27;;;6.10;;
2858;SDS011;1437;53.250;10.406;2023-04-06T11:52:01;8.87;;;6.67;;
2858;SDS011;1437;53.250;10.406;2023-04-06T11:54:36;9.00;;;6.27;;
2858;SDS011;1437;53.250;10.406;2023-04-06T11:57:08;12.40;;;7.40;;
2858;SDS011;1437;53.250;10.406;2023-04-06T11:59:47;9.90;;;6.03;;
2858;SDS011;1437;53.250;10.406;2023-04-06T12:02:33;8.67;;;6.27;;
2858;SDS011;1437;53.250;10.406;2023-04-06T12:05:17;11.13;;;7.13;;
2858;SDS011;1437;53.250;10.406;2023-04-06T12:07:48;11.13;;;6.77;;
2858;SDS011;1437;53.250;10.406;2023-04-06T12:10:23;10.57;;;6.80;;
2858;SDS011;1437;53.250;10.406;2023-04-06T12:12:53;9.37;;;6.20;;
2858;SDS011;1437;53.250;10.406;2023-04-06T12:15:28;14.73;;;6.70;;
2858;SDS011;1437;53.250;10.406;2023-04-06T12:18:09;11.73;;;7.00;;
2858;SDS011;1437;53.250;10.406;2023-04-06T12:20:41;10.47;;;6.17;;
2858;SDS011;1437;53.250;10.406;2023-04-06T12:23:28;13.20;;;7.83;;
2858;SDS011;1437;53.250;10.406;2023-04-06T12:26:04;12.83;;;6.77;;
2858;SDS011;1437;53.250;10.406;2023-04-06T12:28:33;10.60;;;6.10;;
2858;SDS011;1437;53.250;10.406;2023-04-06T12:31:01;8.93;;;6.27;;
2858;SDS011;1437;53.250;10.406;2023-04-06T12:33:29;11.80;;;7.67;;
2858;SDS011;1437;53.250;10.406;2023-04-06T12:36:00;11.90;;;7.50;;
2858;SDS011;1437;53.250;10.406;2023-04-06T12:38:37;11.33;;;8.10;;
2858;SDS011;1437;53.250;10.406;2023-04-06T12:41:07;10.17;;;6.87;;
2858;SDS011;1437;53.250;10.406;2023-04-06T12:43:35;10.97;;;7.20;;
2858;SDS011;1437;53.250;10.406;2023-04-06T12:46:06;10.53;;;6.70;;
2858;SDS011;1437;53.250;10.406;2023-04-06T12:48:37;17.60;;;6.67;;
2858;SDS011;1437;53.250;10.406;2023-04-06T12:51:06;13.07;;;6.90;;
2858;SDS011;1437;53.250;10.406;2023-04-06T12:53:46;10.10;;;6.40;;
2858;SDS011;1437;53.250;10.406;2023-04-06T12:56:22;8.60;;;6.97;;
2858;SDS011;1437;53.250;10.406;2023-04-06T12:58:58;8.90;;;6.47;;
2858;SDS011;1437;53.250;10.406;2023-04-06T13:01:26;10.90;;;7.00;;
2858;SDS011;1437;53.250;10.406;2023-04-06T13:03:55;11.93;;;6.97;;
2858;SDS011;1437;53.250;10.406;2023-04-06T13:06:24;9.87;;;5.50;;
2858;SDS011;1437;53.250;10.406;2023-04-06T13:08:57;13.10;;;9.97;;
2858;SDS011;1437;53.250;10.406;2023-04-06T13:11:27;9.57;;;6.87;;
2858;SDS011;1437;53.250;10.406;2023-04-06T13:13:57;10.43;;;7.00;;
2858;SDS011;1437;53.250;10.406;2023-04-06T13:16:27;13.90;;;7.97;;
2858;SDS011;1437;53.250;10.406;2023-04-06T13:18:55;8.97;;;6.70;;
2858;SDS011;1437;53.250;10.406;2023-04-06T13:21:23;9.70;;;6.70;;
2858;SDS011;1437;53.250;10.406;2023-04-06T13:23:51;11.50;;;7.30;;
2858;SDS011;1437;53.250;10.406;2023-04-06T13:26:22;9.97;;;7.47;;
2858;SDS011;1437;53.250;10.406;2023-04-06T13:28:53;8.83;;;5.80;;
2858;SDS011;1437;53.250;10.406;2023-04-06T13:31:23;9.07;;;6.80;;
2858;SDS011;1437;53.250;10.406;2023-04-06T13:33:52;11.37;;;7.00;;
2858;SDS011;1437;53.250;10.406;2023-04-06T13:36:22;10.57;;;6.53;;
2858;SDS011;1437;53.250;10.406;2023-04-06T13:38:52;10.70;;;6.93;;
2858;SDS011;1437;53.250;10.406;2023-04-06T13:41:27;11.80;;;6.67;;
2858;SDS011;1437;53.250;10.406;2023-04-06T13:43:56;11.10;;;7.27;;
2858;SDS011;1437;53.250;10.406;2023-04-06T13:46:29;8.37;;;5.53;;
2858;SDS011;1437;53.250;10.406;2023-04-06T13:49:02;8.83;;;5.97;;
2858;SDS011;1437;53.250;10.406;2023-04-06T13:51:31;9.43;;;6.90;;
2858;SDS011;1437;53.250;10.406;2023-04-06T13:54:03;10.10;;;6.60;;
2858;SDS011;1437;53.250;10.406;2023-04-06T13:56:34;10.03;;;6.63;;
2858;SDS011;1437;53.250;10.406;2023-04-06T13:59:02;11.63;;;7.07;;
2858;SDS011;1437;53.250;10.406;2023-04-06T14:01:31;10.93;;;6.30;;
2858;SDS011;1437;53.250;10.406;2023-04-06T14:03:59;8.70;;;6.77;;
2858;SDS011;1437;53.250;10.406;2023-04-06T14:06:26;14.77;;;6.73;;
2858;SDS011;1437;53.250;10.406;2023-04-06T14:09:05;9.73;;;6.60;;
2858;SDS011;1437;53.250;10.406;2023-04-06T14:11:38;9.33;;;6.57;;
2858;SDS011;1437;53.250;10.406;2023-04-06T14:14:06;11.37;;;7.50;;
2858;SDS011;1437;53.250;10.406;2023-04-06T14:16:44;9.17;;;6.20;;
2858;SDS011;1437;53.250;10.406;2023-04-06T14:19:17;12.77;;;7.23;;
2858;SDS011;1437;53.250;10.406;2023-04-06T14:22:10;7.70;;;5.70;;
2858;SDS011;1437;53.250;10.406;2023-04-06T14:24:55;8.83;;;5.60;;
2858;SDS011;1437;53.250;10.406;2023-04-06T14:27:27;8.10;;;6.00;;
2858;SDS011;1437;53.250;10.406;2023-04-06T14:29:56;9.07;;;5.93;;
2858;SDS011;1437;53.250;10.406;2023-04-06T14:32:26;8.67;;;6.60;;
2858;SDS011;1437;53.250;10.406;2023-04-06T14:34:53;10.27;;;6.73;;
2858;SDS011;1437;53.250;10.406;2023-04-06T14:37:21;8.63;;;6.03;;
2858;SDS011;1437;53.250;10.406;2023-04-06T14:39:51;10.53;;;6.50;;
2858;SDS011;1437;53.250;10.406;2023-04-06T14:42:19;13.20;;;7.40;;
2858;SDS011;1437;53.250;10.406;2023-04-06T14:44:48;8.40;;;5.33;;
2858;SDS011;1437;53.250;10.406;2023-04-06T14:47:30;9.63;;;6.40;;
2858;SDS011;1437;53.250;10.406;2023-04-06T14:49:57;9.30;;;6.20;;
2858;SDS011;1437;53.250;10.406;2023-04-06T14:52:28;11.07;;;6.37;;
2858;SDS011;1437;53.250;10.406;2023-04-06T14:55:04;8.17;;;5.90;;
2858;SDS011;1437;53.250;10.406;2023-04-06T14:57:37;11.13;;;6.73;;
2858;SDS011;1437;53.250;10.406;2023-04-06T15:00:07;10.77;;;7.30;;
2858;SDS011;1437;53.250;10.406;2023-04-06T15:02:49;10.47;;;7.50;;
2858;SDS011;1437;53.250;10.406;2023-04-06T15:05:23;7.57;;;5.63;;
2858;SDS011;1437;53.250;10.406;2023-04-06T15:10:39;10.37;;;6.73;;
2858;SDS011;1437;53.250;10.406;2023-04-06T15:13:07;10.30;;;6.77;;
2858;SDS011;1437;53.250;10.406;2023-04-06T15:15:37;13.27;;;6.90;;
2858;SDS011;1437;53.250;10.406;2023-04-06T15:18:05;8.93;;;6.27;;
2858;SDS011;1437;53.250;10.406;2023-04-06T15:20:39;9.80;;;6.20;;
2858;SDS011;1437;53.250;10.406;2023-04-06T15:26:22;13.20;;;6.70;;
2858;SDS011;1437;53.250;10.406;2023-04-06T15:28:50;11.97;;;6.07;;